createdAt,value
2018-05-24T00:00:44.988Z,4.50
2018-05-24T00:01:45.144Z,5.70
2018-05-24T00:02:45.302Z,5.00
2018-05-24T00:03:45.458Z,5.40
2018-05-24T00:04:45.615Z,5.70
2018-05-24T00:05:45.774Z,4.90
2018-05-24T00:06:45.926Z,4.70
2018-05-24T00:07:46.085Z,6.00
2018-05-24T00:08:46.240Z,6.00
2018-05-24T00:09:46.402Z,7.70
2018-05-24T00:10:46.552Z,6.40
2018-05-24T00:11:46.711Z,6.20
2018-05-24T00:12:46.868Z,4.70
2018-05-24T00:13:47.028Z,5.40
2018-05-24T00:14:47.181Z,5.70
2018-05-24T00:15:47.339Z,4.60
2018-05-24T00:16:47.501Z,4.50
2018-05-24T00:17:47.652Z,4.90
2018-05-24T00:18:47.809Z,4.90
2018-05-24T00:19:47.965Z,4.60
2018-05-24T00:20:48.124Z,6.40
2018-05-24T00:21:48.277Z,6.30
2018-05-24T00:22:48.436Z,6.10
2018-05-24T00:23:48.591Z,5.40
2018-05-24T00:24:48.747Z,7.40
2018-05-24T00:25:48.903Z,5.70
2018-05-24T00:26:49.061Z,4.10
2018-05-24T00:27:49.220Z,4.10
2018-05-24T00:28:49.377Z,3.60
2018-05-24T00:29:49.533Z,3.10
2018-05-24T00:30:49.690Z,3.10
2018-05-24T00:31:49.847Z,4.10
2018-05-24T00:32:50.002Z,3.00
2018-05-24T00:33:50.160Z,4.00
2018-05-24T00:34:50.317Z,3.20
2018-05-24T00:35:50.489Z,3.50
2018-05-24T00:36:50.639Z,3.60
2018-05-24T00:37:50.790Z,4.20
2018-05-24T00:38:50.948Z,5.80
2018-05-24T00:39:51.104Z,3.30
2018-05-24T00:40:51.260Z,3.40
2018-05-24T00:41:51.421Z,3.60
2018-05-24T00:42:51.575Z,2.80
2018-05-24T00:43:51.733Z,3.70
2018-05-24T00:44:51.887Z,5.40
2018-05-24T00:45:52.046Z,2.70
2018-05-24T00:46:52.201Z,3.00
2018-05-24T00:47:52.360Z,4.30
2018-05-24T00:48:52.515Z,2.90
2018-05-24T00:49:52.672Z,4.10
2018-05-24T00:50:52.831Z,5.10
2018-05-24T00:51:52.987Z,3.90
2018-05-24T00:52:53.143Z,4.90
2018-05-24T00:53:53.303Z,5.00
2018-05-24T00:54:53.460Z,4.90
2018-05-24T00:55:53.613Z,6.10
2018-05-24T00:56:53.770Z,6.60
2018-05-24T00:57:53.928Z,6.60
2018-05-24T00:58:54.084Z,7.50
2018-05-24T00:59:54.242Z,8.70
2018-05-24T01:00:54.403Z,6.40
2018-05-24T01:01:54.555Z,7.60
2018-05-24T01:02:54.711Z,7.00
2018-05-24T01:03:54.871Z,9.00
2018-05-24T01:04:55.026Z,9.00
2018-05-24T01:05:55.183Z,7.20
2018-05-24T01:06:55.336Z,7.40
2018-05-24T01:07:55.519Z,7.90
2018-05-24T01:08:55.675Z,7.60
2018-05-24T01:09:55.832Z,8.60
2018-05-24T01:10:55.992Z,9.40
2018-05-24T01:11:56.143Z,8.10
2018-05-24T01:12:56.301Z,7.30
2018-05-24T01:13:56.456Z,7.40
2018-05-24T01:14:56.612Z,7.20
2018-05-24T01:15:56.848Z,5.50
2018-05-24T01:16:56.921Z,6.70
2018-05-24T01:17:57.080Z,5.00
2018-05-24T01:18:57.237Z,5.20
2018-05-24T01:19:57.393Z,6.00
2018-05-24T01:20:57.550Z,4.90
2018-05-24T01:21:57.705Z,5.20
2018-05-24T01:22:57.858Z,5.40
2018-05-24T01:23:58.017Z,6.70
2018-05-24T01:24:58.173Z,5.70
2018-05-24T01:25:58.330Z,5.40
2018-05-24T01:26:58.482Z,8.20
2018-05-24T01:27:58.639Z,9.40
2018-05-24T01:28:58.796Z,7.40
2018-05-24T01:29:58.950Z,9.40
2018-05-24T01:30:59.106Z,8.90
2018-05-24T01:31:59.261Z,8.50
2018-05-24T01:32:59.415Z,8.10
2018-05-24T01:33:59.572Z,5.70
2018-05-24T01:34:59.728Z,7.10
2018-05-24T01:35:59.883Z,5.50
2018-05-24T01:37:00.039Z,4.40
2018-05-24T01:38:00.192Z,5.00
2018-05-24T01:39:00.349Z,5.40
2018-05-24T01:40:00.507Z,4.40
2018-05-24T01:41:00.658Z,6.70
2018-05-24T01:42:00.813Z,4.90
2018-05-24T01:43:00.968Z,5.60
2018-05-24T01:44:01.125Z,5.80
2018-05-24T01:45:01.280Z,4.20
2018-05-24T01:46:01.435Z,7.10
2018-05-24T01:47:01.589Z,5.70
2018-05-24T01:48:01.744Z,5.50
2018-05-24T01:49:01.901Z,6.00
2018-05-24T01:50:02.054Z,4.60
2018-05-24T01:51:02.211Z,4.90
2018-05-24T01:52:02.365Z,5.10
2018-05-24T01:53:02.517Z,5.60
2018-05-24T01:54:02.670Z,5.20
2018-05-24T01:55:02.828Z,4.90
2018-05-24T01:56:02.983Z,6.70
2018-05-24T01:57:03.145Z,5.60
2018-05-24T01:58:03.299Z,5.10
2018-05-24T01:59:03.453Z,5.00
2018-05-24T02:00:03.607Z,6.70
2018-05-24T02:01:03.761Z,5.50
2018-05-24T02:02:03.915Z,5.00
2018-05-24T02:03:04.069Z,4.30
2018-05-24T02:04:04.232Z,4.90
2018-05-24T02:05:04.386Z,5.60
2018-05-24T02:06:04.538Z,5.90
2018-05-24T02:07:04.694Z,6.00
2018-05-24T02:08:04.846Z,4.50
2018-05-24T02:09:05.001Z,5.00
2018-05-24T02:10:05.155Z,5.40
2018-05-24T02:11:05.310Z,7.00
2018-05-24T02:12:05.465Z,6.50
2018-05-24T02:13:05.627Z,6.10
2018-05-24T02:14:05.777Z,6.70
2018-05-24T02:15:05.930Z,5.30
2018-05-24T02:16:06.087Z,5.40
2018-05-24T02:17:06.241Z,4.90
2018-05-24T02:18:06.394Z,6.50
2018-05-24T02:19:06.551Z,5.00
2018-05-24T02:20:06.707Z,6.80
2018-05-24T02:21:06.857Z,6.30
2018-05-24T02:22:07.015Z,4.90
2018-05-24T02:23:07.167Z,4.40
2018-05-24T02:24:07.322Z,6.20
2018-05-24T02:25:07.470Z,6.00
2018-05-24T02:26:07.623Z,5.10
2018-05-24T02:27:07.777Z,5.80
2018-05-24T02:28:07.930Z,4.90
2018-05-24T02:29:08.115Z,6.80
2018-05-24T02:30:08.242Z,5.80
2018-05-24T02:31:08.397Z,5.40
2018-05-24T02:32:08.555Z,5.30
2018-05-24T02:33:08.707Z,4.90
2018-05-24T02:34:08.861Z,5.30
2018-05-24T02:35:09.017Z,6.10
2018-05-24T02:36:09.171Z,6.60
2018-05-24T02:37:09.328Z,8.10
2018-05-24T02:38:09.484Z,6.60
2018-05-24T02:39:09.636Z,5.50
2018-05-24T02:40:09.794Z,5.90
2018-05-24T02:41:09.948Z,5.30
2018-05-24T02:42:10.102Z,5.20
2018-05-24T02:43:10.257Z,5.70
2018-05-24T02:44:10.411Z,7.70
2018-05-24T02:45:10.565Z,6.50
2018-05-24T02:46:10.723Z,6.10
2018-05-24T02:47:10.875Z,5.20
2018-05-24T02:48:11.031Z,6.00
2018-05-24T02:49:11.183Z,5.70
2018-05-24T02:50:11.345Z,5.20
2018-05-24T02:51:11.493Z,6.00
2018-05-24T02:52:11.651Z,4.90
2018-05-24T02:53:11.806Z,6.20
2018-05-24T02:54:11.960Z,6.50
2018-05-24T02:55:12.118Z,5.30
2018-05-24T02:56:12.273Z,5.50
2018-05-24T02:57:12.425Z,5.40
2018-05-24T02:58:12.578Z,5.40
2018-05-24T02:59:12.730Z,5.50
2018-05-24T03:00:12.890Z,5.10
2018-05-24T03:01:13.047Z,5.30
2018-05-24T03:02:13.202Z,7.10
2018-05-24T03:03:13.368Z,7.30
2018-05-24T03:04:13.512Z,7.40
2018-05-24T03:05:13.665Z,6.00
2018-05-24T03:06:13.820Z,6.80
2018-05-24T03:07:13.975Z,6.40
2018-05-24T03:08:14.129Z,7.60
2018-05-24T03:09:14.286Z,6.50
2018-05-24T03:10:14.439Z,7.50
2018-05-24T03:11:14.593Z,7.70
2018-05-24T03:12:14.750Z,6.30
2018-05-24T03:13:14.902Z,6.60
2018-05-24T03:14:15.099Z,7.20
2018-05-24T03:15:15.214Z,8.00
2018-05-24T03:16:15.367Z,8.40
2018-05-24T03:17:15.523Z,7.10
2018-05-24T03:18:15.676Z,6.80
2018-05-24T03:19:15.833Z,8.50
2018-05-24T03:20:15.993Z,7.00
2018-05-24T03:21:16.142Z,7.80
2018-05-24T03:22:16.296Z,6.70
2018-05-24T03:23:16.449Z,9.80
2018-05-24T03:24:16.605Z,7.20
2018-05-24T03:25:16.760Z,6.30
2018-05-24T03:26:16.916Z,7.10
2018-05-24T03:27:17.068Z,6.70
2018-05-24T03:28:17.225Z,8.10
2018-05-24T03:29:17.381Z,7.20
2018-05-24T03:30:17.542Z,6.70
2018-05-24T03:31:17.691Z,5.90
2018-05-24T03:32:17.853Z,6.80
2018-05-24T03:33:17.995Z,6.20
2018-05-24T03:34:18.153Z,6.00
2018-05-24T03:35:18.329Z,8.30
2018-05-24T03:36:18.464Z,7.90
2018-05-24T03:37:18.618Z,6.70
2018-05-24T03:38:18.774Z,6.80
2018-05-24T03:39:18.929Z,7.90
2018-05-24T03:40:19.090Z,6.70
2018-05-24T03:41:19.248Z,6.20
2018-05-24T03:42:19.403Z,6.70
2018-05-24T03:43:19.558Z,6.10
2018-05-24T03:44:19.718Z,6.80
2018-05-24T03:45:19.875Z,6.70
2018-05-24T03:46:20.035Z,6.80
2018-05-24T03:47:20.193Z,6.30
2018-05-24T03:48:20.345Z,7.00
2018-05-24T03:49:20.500Z,7.00
2018-05-24T03:50:20.653Z,6.80
2018-05-24T03:51:20.809Z,7.60
2018-05-24T03:52:20.966Z,6.80
2018-05-24T03:53:21.119Z,6.30
2018-05-24T03:54:21.275Z,6.20
2018-05-24T03:55:21.433Z,6.00
2018-05-24T03:56:21.589Z,5.90
2018-05-24T03:57:21.744Z,6.30
2018-05-24T03:58:21.897Z,6.60
2018-05-24T03:59:22.055Z,6.00
2018-05-24T04:00:22.207Z,6.40
2018-05-24T04:01:22.365Z,6.10
2018-05-24T04:02:22.523Z,6.20
2018-05-24T04:03:22.675Z,6.30
2018-05-24T04:04:22.826Z,7.50
2018-05-24T04:05:22.978Z,6.00
2018-05-24T04:06:23.132Z,6.60
2018-05-24T04:07:23.285Z,6.40
2018-05-24T04:08:23.439Z,6.10
2018-05-24T04:09:23.599Z,6.80
2018-05-24T04:10:23.750Z,5.60
2018-05-24T04:11:23.905Z,5.80
2018-05-24T04:12:24.063Z,6.20
2018-05-24T04:13:24.216Z,5.60
2018-05-24T04:14:24.374Z,5.50
2018-05-24T04:15:24.529Z,5.70
2018-05-24T04:16:24.684Z,6.30
2018-05-24T04:17:24.840Z,6.40
2018-05-24T04:18:24.994Z,6.70
2018-05-24T04:19:25.147Z,5.90
2018-05-24T04:20:25.306Z,6.10
2018-05-24T04:21:25.457Z,6.30
2018-05-24T04:22:25.658Z,7.10
2018-05-24T04:23:25.702Z,8.30
2018-05-24T04:24:25.860Z,6.10
2018-05-24T04:25:26.015Z,6.30
2018-05-24T04:26:26.170Z,5.60
2018-05-24T04:27:26.330Z,5.50
2018-05-24T04:28:26.478Z,5.60
2018-05-24T04:29:26.635Z,5.50
2018-05-24T04:30:26.787Z,5.50
2018-05-24T04:31:26.946Z,6.30
2018-05-24T04:32:27.100Z,6.40
2018-05-24T04:33:27.255Z,5.50
2018-05-24T04:34:27.411Z,6.50
2018-05-24T04:35:27.568Z,5.80
2018-05-24T04:36:27.727Z,6.50
2018-05-24T04:37:27.883Z,6.20
2018-05-24T04:38:28.043Z,5.90
2018-05-24T04:39:28.184Z,7.00
2018-05-24T04:40:28.341Z,7.00
2018-05-24T04:41:28.497Z,6.60
2018-05-24T04:42:28.652Z,5.80
2018-05-24T04:43:28.807Z,5.90
2018-05-24T04:44:28.964Z,7.30
2018-05-24T04:45:29.202Z,6.70
2018-05-24T04:46:29.276Z,6.20
2018-05-24T04:47:29.431Z,8.00
2018-05-24T04:48:29.587Z,6.90
2018-05-24T04:49:29.743Z,5.50
2018-05-24T04:50:29.897Z,7.20
2018-05-24T04:51:30.056Z,5.90
2018-05-24T04:52:30.206Z,5.60
2018-05-24T04:53:30.361Z,6.00
2018-05-24T04:54:30.521Z,5.30
2018-05-24T04:55:30.672Z,5.90
2018-05-24T04:56:30.827Z,6.00
2018-05-24T04:57:30.986Z,5.30
2018-05-24T04:58:31.135Z,6.60
2018-05-24T04:59:31.292Z,6.60
2018-05-24T05:00:31.446Z,5.30
2018-05-24T05:01:31.604Z,5.60
2018-05-24T05:02:31.760Z,6.40
2018-05-24T05:03:31.921Z,5.40
2018-05-24T05:04:32.070Z,6.10
2018-05-24T05:05:32.218Z,5.30
2018-05-24T05:06:32.374Z,5.60
2018-05-24T05:07:32.526Z,6.10
2018-05-24T05:08:32.687Z,5.50
2018-05-24T05:09:32.837Z,5.90
2018-05-24T05:10:32.995Z,6.40
2018-05-24T05:11:33.139Z,7.10
2018-05-24T05:12:33.298Z,6.20
2018-05-24T05:13:33.557Z,6.90
2018-05-24T05:14:33.696Z,6.70
2018-05-24T05:15:33.767Z,6.00
2018-05-24T05:16:33.928Z,6.80
2018-05-24T05:17:34.083Z,6.10
2018-05-24T05:18:34.240Z,6.10
2018-05-24T05:19:34.447Z,6.00
2018-05-24T05:20:34.549Z,5.90
2018-05-24T05:21:34.696Z,6.40
2018-05-24T05:22:34.850Z,5.80
2018-05-24T05:23:35.007Z,7.40
2018-05-24T05:24:35.160Z,6.00
2018-05-24T05:25:35.313Z,6.30
2018-05-24T05:26:35.468Z,5.70
2018-05-24T05:27:35.620Z,6.40
2018-05-24T05:28:35.774Z,7.30
2018-05-24T05:29:35.931Z,6.50
2018-05-24T05:30:36.110Z,6.00
2018-05-24T05:31:36.244Z,6.20
2018-05-24T05:32:36.397Z,6.20
2018-05-24T05:33:36.553Z,7.00
2018-05-24T05:34:36.706Z,6.20
2018-05-24T05:35:36.865Z,6.70
2018-05-24T05:36:37.022Z,6.00
2018-05-24T05:37:37.175Z,6.70
2018-05-24T05:38:37.329Z,6.60
2018-05-24T05:39:37.486Z,6.60
2018-05-24T05:40:37.643Z,7.30
2018-05-24T05:41:37.801Z,8.40
2018-05-24T05:42:37.952Z,6.70
2018-05-24T05:43:38.107Z,6.90
2018-05-24T05:44:38.265Z,7.10
2018-05-24T05:45:38.420Z,6.60
2018-05-24T05:46:38.574Z,6.90
2018-05-24T05:47:38.731Z,6.50
2018-05-24T05:48:38.887Z,6.50
2018-05-24T05:49:39.042Z,7.40
2018-05-24T05:50:39.199Z,6.70
2018-05-24T05:51:39.355Z,7.20
2018-05-24T05:52:39.510Z,6.70
2018-05-24T05:53:39.655Z,6.80
2018-05-24T05:54:39.815Z,6.50
2018-05-24T05:55:39.970Z,7.30
2018-05-24T05:56:40.123Z,7.50
2018-05-24T05:57:40.274Z,6.40
2018-05-24T05:58:40.436Z,8.10
2018-05-24T05:59:40.582Z,7.40
2018-05-24T06:00:40.739Z,6.50
2018-05-24T06:01:40.971Z,6.90
2018-05-24T06:02:41.048Z,7.90
2018-05-24T06:03:41.191Z,6.80
2018-05-24T06:04:41.354Z,6.50
2018-05-24T06:05:41.508Z,7.80
2018-05-24T06:06:41.663Z,7.60
2018-05-24T06:07:41.818Z,8.90
2018-05-24T06:08:41.977Z,9.80
2018-05-24T06:09:42.145Z,11.00
2018-05-24T06:10:42.292Z,9.00
2018-05-24T06:11:42.444Z,9.20
2018-05-24T06:12:42.604Z,9.70
2018-05-24T06:13:42.769Z,9.10
2018-05-24T06:14:42.911Z,9.80
2018-05-24T06:15:43.069Z,10.90
2018-05-24T06:16:43.226Z,9.20
2018-05-24T06:17:43.387Z,10.10
2018-05-24T06:18:43.539Z,11.40
2018-05-24T06:19:43.699Z,10.20
2018-05-24T06:20:43.853Z,9.00
2018-05-24T06:21:44.087Z,9.50
2018-05-24T06:22:44.162Z,9.40
2018-05-24T06:23:44.322Z,8.60
2018-05-24T06:24:44.476Z,9.30
2018-05-24T06:25:44.638Z,11.30
2018-05-24T06:26:44.793Z,9.00
2018-05-24T06:27:44.949Z,9.10
2018-05-24T06:28:45.112Z,8.20
2018-05-24T06:29:45.260Z,9.50
2018-05-24T06:30:45.419Z,8.80
2018-05-24T06:31:45.576Z,9.50
2018-05-24T06:32:45.734Z,9.90
2018-05-24T06:33:45.890Z,10.00
2018-05-24T06:34:46.045Z,10.70
2018-05-24T06:35:46.202Z,10.40
2018-05-24T06:36:46.362Z,9.60
2018-05-24T06:37:46.517Z,9.40
2018-05-24T06:38:46.677Z,8.40
2018-05-24T06:39:46.834Z,8.80
2018-05-24T06:40:46.991Z,9.00
2018-05-24T06:41:47.151Z,9.50
2018-05-24T06:42:47.310Z,8.70
2018-05-24T06:43:47.466Z,8.60
2018-05-24T06:44:47.627Z,8.00
2018-05-24T06:45:47.781Z,7.60
2018-05-24T06:46:47.941Z,8.40
2018-05-24T06:47:48.099Z,9.40
2018-05-24T06:48:48.250Z,8.40
2018-05-24T06:49:48.409Z,9.90
2018-05-24T06:50:48.561Z,8.40
2018-05-24T06:51:48.730Z,7.90
2018-05-24T06:52:48.883Z,8.40
2018-05-24T06:53:49.105Z,8.40
2018-05-24T06:54:49.192Z,8.40
2018-05-24T06:55:49.351Z,8.10
2018-05-24T06:56:49.509Z,9.00
2018-05-24T06:57:49.668Z,8.50
2018-05-24T06:58:49.825Z,8.10
2018-05-24T06:59:50.034Z,7.90
2018-05-24T07:00:50.138Z,7.50
2018-05-24T07:01:50.299Z,9.00
2018-05-24T07:02:50.456Z,8.90
2018-05-24T07:03:50.616Z,8.30
2018-05-24T07:04:50.773Z,7.90
2018-05-24T07:05:50.939Z,9.00
2018-05-24T07:06:51.090Z,9.10
2018-05-24T07:07:51.249Z,8.20
2018-05-24T07:08:51.407Z,8.60
2018-05-24T07:09:51.568Z,7.80
2018-05-24T07:10:51.723Z,7.70
2018-05-24T07:11:51.880Z,7.30
2018-05-24T07:12:52.040Z,7.50
2018-05-24T07:13:52.198Z,7.60
2018-05-24T07:14:52.356Z,6.90
2018-05-24T07:15:52.516Z,7.10
2018-05-24T07:16:52.674Z,7.30
2018-05-24T07:17:52.832Z,7.10
2018-05-24T07:18:52.993Z,7.00
2018-05-24T07:19:53.148Z,7.70
2018-05-24T07:20:53.322Z,8.10
2018-05-24T07:21:53.480Z,8.30
2018-05-24T07:22:53.638Z,8.40
2018-05-24T07:23:53.798Z,9.30
2018-05-24T07:24:53.949Z,9.90
2018-05-24T07:25:54.109Z,8.90
2018-05-24T07:26:54.265Z,8.30
2018-05-24T07:27:54.423Z,9.00
2018-05-24T07:28:54.582Z,10.20
2018-05-24T07:29:54.739Z,7.90
2018-05-24T07:30:54.892Z,7.70
2018-05-24T07:31:55.057Z,10.10
2018-05-24T07:32:55.211Z,9.00
2018-05-24T07:33:55.373Z,10.10
2018-05-24T07:34:55.530Z,9.70
2018-05-24T07:35:55.732Z,9.50
2018-05-24T07:36:55.849Z,8.10
2018-05-24T07:37:56.007Z,8.30
2018-05-24T07:38:56.166Z,8.80
2018-05-24T07:39:56.323Z,9.10
2018-05-24T07:40:56.479Z,8.90
2018-05-24T07:41:56.637Z,7.70
2018-05-24T07:42:56.794Z,7.50
2018-05-24T07:43:56.951Z,9.00
2018-05-24T07:44:57.112Z,8.80
2018-05-24T07:45:57.276Z,7.90
2018-05-24T07:46:57.430Z,7.30
2018-05-24T07:47:57.586Z,8.70
2018-05-24T07:48:57.747Z,9.30
2018-05-24T07:49:57.903Z,9.40
2018-05-24T07:50:58.061Z,8.70
2018-05-24T07:51:58.216Z,9.40
2018-05-24T07:52:58.374Z,10.40
2018-05-24T07:53:58.535Z,9.60
2018-05-24T07:54:58.690Z,8.80
2018-05-24T07:55:58.848Z,9.30
2018-05-24T07:56:59.004Z,9.10
2018-05-24T07:57:59.162Z,9.50
2018-05-24T07:58:59.320Z,8.00
2018-05-24T07:59:59.479Z,8.00
2018-05-24T08:00:59.639Z,9.30
2018-05-24T08:01:59.795Z,8.40
2018-05-24T08:02:59.956Z,8.70
2018-05-24T08:04:00.108Z,9.30
2018-05-24T08:05:00.262Z,9.80
2018-05-24T08:06:00.422Z,10.20
2018-05-24T08:07:00.579Z,9.30
2018-05-24T08:08:00.738Z,9.40
2018-05-24T08:09:00.893Z,9.20
2018-05-24T08:10:01.051Z,8.60
2018-05-24T08:11:01.209Z,8.10
2018-05-24T08:12:01.366Z,8.50
2018-05-24T08:13:01.524Z,8.80
2018-05-24T08:14:01.680Z,8.20
2018-05-24T08:15:01.838Z,8.60
2018-05-24T08:16:01.998Z,8.40
2018-05-24T08:17:02.154Z,8.40
2018-05-24T08:18:02.309Z,8.80
2018-05-24T08:19:02.475Z,8.10
2018-05-24T08:20:02.626Z,8.70
2018-05-24T08:21:02.780Z,8.40
2018-05-24T08:22:02.940Z,8.70
2018-05-24T08:23:03.090Z,8.40
2018-05-24T08:24:03.242Z,8.10
2018-05-24T08:25:03.401Z,8.20
2018-05-24T08:26:03.557Z,7.30
2018-05-24T08:27:03.718Z,8.30
2018-05-24T08:28:03.873Z,8.30
2018-05-24T08:29:04.031Z,8.30
2018-05-24T08:30:04.189Z,8.40
2018-05-24T08:31:04.345Z,8.80
2018-05-24T08:32:04.503Z,8.10
2018-05-24T08:33:04.660Z,8.50
2018-05-24T08:34:04.818Z,8.70
2018-05-24T08:35:04.996Z,8.70
2018-05-24T08:36:05.128Z,8.30
2018-05-24T08:37:05.285Z,8.00
2018-05-24T08:38:05.439Z,8.50
2018-05-24T08:39:05.593Z,8.70
2018-05-24T08:40:05.748Z,8.70
2018-05-24T08:41:05.905Z,8.70
2018-05-24T08:42:06.060Z,8.50
2018-05-24T08:43:06.217Z,8.90
2018-05-24T08:44:06.373Z,8.60
2018-05-24T08:45:06.531Z,8.60
2018-05-24T08:46:06.690Z,8.60
2018-05-24T08:47:06.853Z,8.30
2018-05-24T08:48:07.005Z,8.60
2018-05-24T08:49:07.162Z,9.10
2018-05-24T08:50:07.317Z,9.00
2018-05-24T08:51:07.473Z,9.20
2018-05-24T08:52:07.629Z,8.70
2018-05-24T08:53:07.786Z,9.10
2018-05-24T08:54:07.942Z,9.30
2018-05-24T08:55:08.098Z,9.10
2018-05-24T08:56:08.255Z,9.20
2018-05-24T08:57:08.413Z,9.30
2018-05-24T08:58:08.575Z,9.00
2018-05-24T08:59:08.720Z,9.10
2018-05-24T09:00:08.875Z,9.20
2018-05-24T09:01:09.031Z,9.50
2018-05-24T09:02:09.186Z,9.60
2018-05-24T09:03:09.347Z,10.60
2018-05-24T09:04:09.503Z,9.30
2018-05-24T09:05:09.659Z,10.00
2018-05-24T09:06:09.814Z,9.20
2018-05-24T09:07:09.972Z,9.30
2018-05-24T09:08:10.128Z,9.60
2018-05-24T09:09:10.328Z,9.40
2018-05-24T09:10:10.448Z,9.50
2018-05-24T09:11:10.598Z,9.50
2018-05-24T09:12:10.754Z,10.70
2018-05-24T09:13:10.908Z,9.70
2018-05-24T09:14:11.066Z,9.70
2018-05-24T09:15:11.226Z,10.70
2018-05-24T09:16:11.378Z,10.60
2018-05-24T09:17:11.535Z,10.70
2018-05-24T09:18:11.693Z,10.00
2018-05-24T09:19:11.849Z,9.80
2018-05-24T09:20:12.082Z,10.10
2018-05-24T09:21:12.160Z,10.30
2018-05-24T09:22:12.318Z,10.30
2018-05-24T09:23:12.471Z,10.80
2018-05-24T09:24:12.631Z,10.60
2018-05-24T09:25:12.787Z,10.40
2018-05-24T09:26:12.943Z,9.70
2018-05-24T09:27:13.098Z,10.10
2018-05-24T09:28:13.255Z,9.80
2018-05-24T09:29:13.415Z,9.90
2018-05-24T09:30:13.568Z,9.90
2018-05-24T09:31:13.724Z,9.80
2018-05-24T09:32:13.881Z,10.00
2018-05-24T09:33:14.038Z,9.80
2018-05-24T09:34:14.195Z,10.00
2018-05-24T09:35:14.350Z,9.60
2018-05-24T09:36:14.567Z,10.00
2018-05-24T09:37:14.661Z,9.30
2018-05-24T09:38:14.819Z,9.50
2018-05-24T09:39:14.976Z,9.50
2018-05-24T09:40:15.131Z,9.60
2018-05-24T09:41:15.290Z,10.00
2018-05-24T09:42:15.491Z,10.40
2018-05-24T09:43:15.607Z,11.10
2018-05-24T09:44:15.761Z,10.60
2018-05-24T09:45:15.915Z,10.60
2018-05-24T09:46:16.072Z,11.10
2018-05-24T09:47:16.227Z,11.20
2018-05-24T09:48:16.383Z,11.30
2018-05-24T09:49:16.539Z,10.80
2018-05-24T09:50:16.695Z,11.30
2018-05-24T09:51:16.851Z,11.30
2018-05-24T09:52:17.007Z,11.30
2018-05-24T09:53:17.164Z,11.80
2018-05-24T09:54:17.322Z,11.00
2018-05-24T09:55:17.558Z,11.90
2018-05-24T09:56:17.635Z,12.10
2018-05-24T09:57:17.791Z,12.10
2018-05-24T09:58:17.952Z,11.40
2018-05-24T09:59:18.106Z,12.40
2018-05-24T10:00:18.266Z,12.10
2018-05-24T10:01:18.424Z,11.40
2018-05-24T10:02:18.584Z,10.60
2018-05-24T10:03:18.741Z,10.30
2018-05-24T10:04:18.899Z,10.80
2018-05-24T10:05:19.055Z,10.30
2018-05-24T10:06:19.210Z,10.20
2018-05-24T10:07:19.373Z,10.50
2018-05-24T10:08:19.529Z,10.40
2018-05-24T10:09:19.688Z,10.40
2018-05-24T10:10:19.848Z,10.90
2018-05-24T10:11:20.005Z,10.60
2018-05-24T10:12:20.162Z,10.30
2018-05-24T10:13:20.320Z,9.70
2018-05-24T10:14:20.479Z,9.60
2018-05-24T10:15:20.638Z,9.30
2018-05-24T10:16:20.837Z,10.10
2018-05-24T10:17:20.955Z,10.10
2018-05-24T10:18:21.112Z,11.20
2018-05-24T10:19:21.274Z,10.20
2018-05-24T10:20:21.433Z,8.90
2018-05-24T10:21:21.591Z,8.50
2018-05-24T10:22:21.751Z,8.20
2018-05-24T10:23:21.989Z,7.50
2018-05-24T10:24:22.067Z,7.40
2018-05-24T10:25:22.224Z,7.70
2018-05-24T10:26:22.384Z,8.30
2018-05-24T10:27:22.542Z,8.20
2018-05-24T10:28:22.698Z,8.60
2018-05-24T10:29:22.891Z,9.40
2018-05-24T10:30:23.015Z,8.60
2018-05-24T10:31:23.176Z,8.10
2018-05-24T10:32:23.332Z,8.80
2018-05-24T10:33:23.488Z,8.70
2018-05-24T10:34:23.646Z,8.30
2018-05-24T10:35:23.804Z,9.20
2018-05-24T10:36:23.962Z,8.80
2018-05-24T10:37:24.118Z,10.30
2018-05-24T10:38:24.281Z,9.90
2018-05-24T10:39:24.444Z,10.60
2018-05-24T10:40:24.594Z,11.60
2018-05-24T10:41:24.753Z,10.70
2018-05-24T10:42:24.910Z,10.70
2018-05-24T10:43:25.070Z,10.30
2018-05-24T10:44:25.228Z,11.10
2018-05-24T10:45:25.386Z,10.90
2018-05-24T10:46:25.546Z,10.70
2018-05-24T10:47:25.703Z,11.20
2018-05-24T10:48:25.868Z,11.60
2018-05-24T10:49:26.021Z,11.00
2018-05-24T10:50:26.177Z,10.80
2018-05-24T10:51:26.335Z,10.90
2018-05-24T10:52:26.491Z,10.50
2018-05-24T10:53:26.648Z,10.40
2018-05-24T10:54:26.808Z,11.90
2018-05-24T10:55:26.964Z,12.10
2018-05-24T10:56:27.121Z,13.00
2018-05-24T10:57:27.277Z,14.10
2018-05-24T10:58:27.437Z,15.60
2018-05-24T10:59:27.589Z,15.10
2018-05-24T11:00:27.747Z,14.60
2018-05-24T11:01:27.903Z,14.30
2018-05-24T11:02:28.058Z,13.90
2018-05-24T11:03:28.254Z,13.70
2018-05-24T11:04:28.375Z,13.40
2018-05-24T11:05:28.533Z,14.70
2018-05-24T11:06:28.698Z,15.70
2018-05-24T11:07:28.846Z,17.60
2018-05-24T11:08:29.001Z,16.60
2018-05-24T11:09:29.157Z,17.20
2018-05-24T11:10:29.312Z,18.20
2018-05-24T11:11:29.472Z,19.30
2018-05-24T11:12:29.628Z,17.50
2018-05-24T11:13:29.786Z,16.90
2018-05-24T11:14:29.942Z,16.90
2018-05-24T11:15:30.096Z,17.70
2018-05-24T11:16:30.257Z,15.80
2018-05-24T11:17:30.416Z,15.20
2018-05-24T11:18:30.572Z,15.70
2018-05-24T11:19:30.731Z,17.20
2018-05-24T11:20:30.884Z,18.60
2018-05-24T11:21:31.040Z,20.50
2018-05-24T11:22:31.194Z,18.80
2018-05-24T11:23:31.352Z,19.80
2018-05-24T11:24:31.509Z,20.10
2018-05-24T11:25:31.664Z,21.00
2018-05-24T11:26:31.823Z,21.00
2018-05-24T11:27:31.981Z,21.90
2018-05-24T11:28:32.136Z,22.40
2018-05-24T11:29:32.297Z,22.10
2018-05-24T11:30:32.454Z,23.00
2018-05-24T11:31:32.613Z,22.80
2018-05-24T11:32:32.763Z,23.40
2018-05-24T11:33:32.927Z,24.30
2018-05-24T11:34:33.076Z,26.00
2018-05-24T11:35:33.240Z,26.20
2018-05-24T11:36:33.391Z,25.00
2018-05-24T11:37:33.554Z,27.50
2018-05-24T11:38:33.705Z,28.10
2018-05-24T11:39:33.860Z,28.50
2018-05-24T11:40:34.017Z,25.50
2018-05-24T11:41:34.172Z,25.10
2018-05-24T11:42:34.331Z,26.30
2018-05-24T11:43:34.487Z,26.50
2018-05-24T11:44:34.645Z,24.20
2018-05-24T11:45:34.800Z,24.60
2018-05-24T11:46:34.957Z,26.10
2018-05-24T11:47:35.114Z,25.30
2018-05-24T11:48:35.274Z,24.80
2018-05-24T11:49:35.431Z,24.70
2018-05-24T11:50:35.582Z,25.40
2018-05-24T11:51:35.740Z,26.30
2018-05-24T11:52:35.896Z,25.10
2018-05-24T11:53:36.061Z,25.30
2018-05-24T11:54:36.218Z,24.90
2018-05-24T11:55:36.374Z,25.00
2018-05-24T11:56:36.530Z,25.80
2018-05-24T11:57:36.685Z,26.10
2018-05-24T11:58:36.888Z,26.80
2018-05-24T11:59:36.993Z,27.40
2018-05-24T12:00:37.146Z,26.90
2018-05-24T12:01:37.307Z,26.40
2018-05-24T12:02:37.462Z,26.90
2018-05-24T12:03:37.625Z,26.90
2018-05-24T12:04:37.771Z,27.20
2018-05-24T12:05:37.942Z,27.70
2018-05-24T12:06:38.085Z,28.10
2018-05-24T12:07:38.239Z,28.60
2018-05-24T12:08:38.410Z,28.00
2018-05-24T12:10:38.692Z,30.80
2018-05-24T12:11:38.848Z,30.70
2018-05-24T12:12:39.007Z,30.50
2018-05-24T12:13:39.161Z,31.50
2018-05-24T12:14:39.325Z,32.70
2018-05-24T12:15:39.474Z,33.90
2018-05-24T12:16:39.628Z,35.10
2018-05-24T12:17:39.794Z,34.80
2018-05-24T12:18:39.950Z,33.70
2018-05-24T12:19:40.108Z,35.40
2018-05-24T12:20:40.267Z,32.70
2018-05-24T12:21:40.428Z,33.50
2018-05-24T12:22:40.583Z,33.20
2018-05-24T12:23:40.789Z,33.20
2018-05-24T12:24:40.887Z,33.70
2018-05-24T12:25:41.043Z,32.90
2018-05-24T12:26:41.238Z,34.30
2018-05-24T12:27:41.367Z,33.60
2018-05-24T12:28:41.518Z,33.40
2018-05-24T12:29:41.695Z,32.80
2018-05-24T12:30:41.817Z,34.60
2018-05-24T12:31:41.980Z,35.50
2018-05-24T12:32:42.128Z,33.90
2018-05-24T12:33:42.298Z,33.60
2018-05-24T12:34:42.448Z,32.70
2018-05-24T12:35:42.670Z,32.80
2018-05-24T12:36:42.752Z,32.40
2018-05-24T12:37:42.909Z,33.30
2018-05-24T12:38:43.064Z,33.70
2018-05-24T12:39:43.220Z,34.70
2018-05-24T12:40:43.377Z,34.00
2018-05-24T12:41:43.572Z,35.30
2018-05-24T12:42:43.704Z,34.30
2018-05-24T12:43:43.850Z,33.70
2018-05-24T12:44:44.009Z,36.00
2018-05-24T12:45:44.165Z,35.60
2018-05-24T12:46:44.320Z,34.40
2018-05-24T12:47:44.478Z,33.00
2018-05-24T12:48:44.633Z,33.20
2018-05-24T12:49:44.790Z,32.90
2018-05-24T12:50:44.952Z,33.80
2018-05-24T12:51:45.104Z,31.40
2018-05-24T12:52:45.275Z,33.60
2018-05-24T12:53:45.430Z,32.60
2018-05-24T12:54:45.588Z,32.90
2018-05-24T12:55:45.743Z,32.40
2018-05-24T12:56:45.901Z,32.40
2018-05-24T12:57:46.144Z,32.70
2018-05-24T12:58:46.234Z,31.60
2018-05-24T12:59:46.390Z,32.70
2018-05-24T13:00:46.548Z,31.80
2018-05-24T13:01:46.705Z,33.40
2018-05-24T13:02:46.863Z,32.70
2018-05-24T13:03:47.018Z,32.20
2018-05-24T13:04:47.174Z,34.40
2018-05-24T13:05:47.332Z,34.30
2018-05-24T13:06:47.487Z,34.40
2018-05-24T13:07:47.634Z,32.10
2018-05-24T13:08:47.792Z,32.10
2018-05-24T13:09:48.034Z,32.10
2018-05-24T13:10:48.110Z,32.50
2018-05-24T13:11:48.345Z,32.00
2018-05-24T13:12:48.416Z,33.90
2018-05-24T13:13:48.577Z,33.10
2018-05-24T13:14:48.731Z,32.20